Time;durP1;ratioP1;P1;durP2;ratioP2;P2;SDS_P1;SDS_P2;PMS_P1;PMS_P2;Temp;Humidity;BMP_temperature;BMP_pressure;BME280_temperature;BME280_humidity;BME280_pressure;Samples;Min_cycle;Max_cycle;Signal;HPM_P1;HPM_P2
2023/01/15 05:08:30;;;;;;;0.30;0.30;;;12.40;99.90;;;;;;5032383;28;20963;-66
2023/01/15 05:11:01;;;;;;;0.40;0.30;;;12.40;99.90;;;;;;5033616;28;20402;-66
2023/01/15 05:13:26;;;;;;;0.30;0.30;;;12.40;99.90;;;;;;5033215;28;20403;-67
2023/01/15 05:15:52;;;;;;;7.83;0.60;;;12.40;99.90;;;;;;4996336;28;20919;-66
2023/01/15 05:18:18;;;;;;;0.50;0.47;;;12.40;99.90;;;;;;5013597;28;20172;-67
2023/01/15 05:20:43;;;;;;;0.77;0.57;;;12.50;99.90;;;;;;5013605;28;20172;-67
2023/01/15 05:23:09;;;;;;;0.50;0.50;;;12.50;99.90;;;;;;5013502;28;20633;-67
2023/01/15 05:25:37;;;;;;;0.50;0.30;;;12.50;99.90;;;;;;4995928;28;20556;-66
2023/01/15 05:28:03;;;;;;;0.40;0.40;;;12.50;99.90;;;;;;4996048;28;20571;-66
2023/01/15 05:30:29;;;;;;;0.63;0.33;;;12.30;99.90;;;;;;5013746;28;20415;-66
2023/01/15 05:32:55;;;;;;;0.40;0.40;;;11.90;99.90;;;;;;5013291;28;20403;-66
2023/01/15 05:35:20;;;;;;;0.33;0.33;;;11.40;99.90;;;;;;5012328;28;20219;-66
2023/01/15 05:37:46;;;;;;;0.40;0.40;;;11.10;99.90;;;;;;5013396;28;20250;-67
2023/01/15 05:40:12;;;;;;;0.30;0.30;;;10.70;99.90;;;;;;5013422;28;20178;-67
2023/01/15 05:42:37;;;;;;;0.50;0.30;;;10.50;99.90;;;;;;5013587;28;20182;-66
2023/01/15 05:45:03;;;;;;;0.40;0.40;;;10.30;99.90;;;;;;5013164;28;20404;-66
2023/01/15 05:47:29;;;;;;;0.30;0.30;;;10.10;99.90;;;;;;5013699;28;20222;-66
2023/01/15 05:49:54;;;;;;;0.30;0.30;;;9.90;99.90;;;;;;5017841;28;20449;-67
2023/01/15 05:52:20;;;;;;;0.50;0.50;;;9.80;99.90;;;;;;5017553;28;20171;-67
2023/01/15 05:54:48;;;;;;;0.37;0.37;;;9.70;99.90;;;;;;5017063;28;20186;-65
2023/01/15 05:57:14;;;;;;;0.40;0.40;;;9.50;99.90;;;;;;5017324;28;20177;-66
2023/01/15 05:59:40;;;;;;;0.50;0.40;;;9.40;99.90;;;;;;5017581;28;20267;-67
2023/01/15 06:02:05;;;;;;;0.40;0.40;;;9.20;99.90;;;;;;5017264;28;20170;-67
2023/01/15 06:04:31;;;;;;;0.73;0.40;;;9.20;99.90;;;;;;5016732;28;20417;-66
2023/01/15 06:06:57;;;;;;;0.40;0.40;;;9.10;99.90;;;;;;5016998;28;20202;-67
2023/01/15 06:09:23;;;;;;;0.47;0.47;;;9.00;99.90;;;;;;5017139;28;20170;-66
2023/01/15 06:11:50;;;;;;;0.50;0.50;;;8.90;99.90;;;;;;5017086;28;20397;-67
2023/01/15 06:14:16;;;;;;;0.55;0.55;;;8.90;99.90;;;;;;5016592;28;20202;-66
2023/01/15 06:16:41;;;;;;;0.57;0.57;;;8.80;99.90;;;;;;5017010;28;20170;-67
2023/01/15 06:19:10;;;;;;;0.60;0.60;;;8.80;99.90;;;;;;5016823;28;20799;-68
2023/01/15 06:21:35;;;;;;;0.60;0.45;;;8.80;99.90;;;;;;5016823;28;20170;-65
2023/01/15 06:24:02;;;;;;;0.70;0.70;;;8.80;99.90;;;;;;4998883;28;20595;-66
2023/01/15 06:26:27;;;;;;;0.43;0.43;;;8.70;99.90;;;;;;5016841;28;20201;-66
2023/01/15 06:28:53;;;;;;;0.80;0.50;;;8.70;99.90;;;;;;5016786;28;20170;-65
2023/01/15 06:31:21;;;;;;;0.70;0.70;;;8.70;99.90;;;;;;4999037;28;20175;-65
2023/01/15 06:33:47;;;;;;;0.45;0.45;;;8.60;99.90;;;;;;5016431;28;20232;-66
2023/01/15 06:36:20;;;;;;;0.60;0.60;;;8.60;99.90;;;;;;5016434;28;20206;-66
2023/01/15 06:38:46;;;;;;;0.63;0.63;;;8.50;99.90;;;;;;5016594;28;20520;-66
2023/01/15 06:49:29;;;;;;;0.40;0.40;;;8.40;99.90;;;;;;5016434;28;20258;-66
2023/01/15 06:51:55;;;;;;;0.60;0.50;;;8.30;99.90;;;;;;5016315;28;20250;-67
2023/01/15 06:54:21;;;;;;;0.30;0.30;;;8.20;99.90;;;;;;4998202;28;20197;-67
2023/01/15 06:56:46;;;;;;;0.40;0.40;;;8.20;99.90;;;;;;5016314;28;20265;-66
2023/01/15 06:59:12;;;;;;;1.77;1.67;;;8.10;99.90;;;;;;5015556;28;20184;-66
2023/01/15 07:01:37;;;;;;;2.00;1.07;;;8.00;99.90;;;;;;4998032;28;20202;-66
2023/01/15 07:04:03;;;;;;;1.40;1.30;;;7.90;99.90;;;;;;5015665;28;20669;-66
2023/01/15 07:06:30;;;;;;;0.80;0.80;;;7.90;99.90;;;;;;5015969;28;20203;-67
2023/01/15 07:08:55;;;;;;;0.50;0.40;;;7.90;99.90;;;;;;5016304;28;20171;-67
2023/01/15 07:11:21;;;;;;;0.40;0.40;;;7.80;99.90;;;;;;5016456;28;20742;-68
2023/01/15 07:13:47;;;;;;;0.37;0.33;;;7.70;99.90;;;;;;5015525;28;20184;-67
2023/01/15 07:16:26;;;;;;;0.40;0.30;;;7.60;99.90;;;;;;5015979;28;20178;-68
2023/01/15 07:18:55;;;;;;;1.20;0.50;;;7.60;99.90;;;;;;5015983;28;20167;-68
2023/01/15 07:21:22;;;;;;;0.93;0.70;;;7.50;99.90;;;;;;5015213;28;20178;-68
2023/01/15 07:23:48;;;;;;;1.70;0.77;;;7.40;99.90;;;;;;5014366;28;20204;-65
2023/01/15 07:26:13;;;;;;;0.60;0.60;;;7.30;99.90;;;;;;5014472;28;20677;-65
2023/01/15 07:28:39;;;;;;;0.60;0.60;;;7.30;99.90;;;;;;5014554;28;20177;-66
2023/01/15 07:31:05;;;;;;;0.40;0.40;;;7.20;99.90;;;;;;5014852;28;20882;-67
2023/01/15 07:33:30;;;;;;;0.63;0.60;;;7.20;99.90;;;;;;5014976;28;20232;-67
2023/01/15 07:35:56;;;;;;;0.30;0.30;;;7.20;99.90;;;;;;5015489;28;20167;-66
2023/01/15 07:38:22;;;;;;;0.83;0.40;;;7.10;99.90;;;;;;5015164;28;20244;-66
2023/01/15 07:49:44;;;;;;;0.43;0.40;;;7.10;99.90;;;;;;5005873;28;20217;-66
2023/01/15 07:51:45;;;;;;;0.30;0.30;;;6.90;99.90;;;;;;5005876;28;20229;-66
2023/01/15 07:54:11;;;;;;;1.20;1.10;;;6.90;99.90;;;;;;4999895;28;20199;-66
2023/01/15 07:56:37;;;;;;;0.50;0.50;;;6.90;99.90;;;;;;4997611;28;20181;-67
2023/01/15 07:59:02;;;;;;;0.53;0.53;;;6.90;99.90;;;;;;4978039;28;20177;-69
2023/01/15 08:01:28;;;;;;;0.70;0.70;;;6.80;99.90;;;;;;4995278;28;20198;-68
2023/01/15 08:03:53;;;;;;;0.40;0.40;;;6.80;99.90;;;;;;4994936;28;20195;-69
2023/01/15 08:06:19;;;;;;;0.30;0.30;;;6.80;99.90;;;;;;4995173;28;20691;-72
2023/01/15 08:08:45;;;;;;;0.30;0.30;;;6.80;99.90;;;;;;4995616;28;20174;-73
2023/01/15 08:16:41;;;;;;;1.10;0.88;;;6.80;99.90;;;;;;4995148;28;20192;-69
2023/01/15 08:19:06;;;;;;;0.70;0.70;;;6.80;99.90;;;;;;4995142;28;20175;-69
2023/01/15 08:21:32;;;;;;;0.40;0.40;;;6.80;99.90;;;;;;4994589;28;20185;-69
2023/01/15 08:23:57;;;;;;;0.40;0.40;;;6.80;99.90;;;;;;4994408;28;20260;-71
2023/01/15 08:26:23;;;;;;;1.37;0.60;;;6.80;99.90;;;;;;4994653;28;20199;-70
2023/01/15 08:28:48;;;;;;;0.30;0.30;;;6.90;99.90;;;;;;4995032;28;20660;-70
2023/01/15 08:31:14;;;;;;;0.33;0.33;;;6.80;99.90;;;;;;4997271;28;20175;-70
2023/01/15 08:33:40;;;;;;;0.50;0.50;;;6.80;99.90;;;;;;4994362;28;20174;-68
2023/01/15 08:36:05;;;;;;;0.40;0.40;;;6.90;99.90;;;;;;4994580;28;20175;-69
2023/01/15 08:38:32;;;;;;;0.87;0.87;;;6.90;99.90;;;;;;4994770;28;20178;-68
2023/01/15 08:40:58;;;;;;;0.40;0.40;;;6.90;99.90;;;;;;4994566;28;20174;-68
2023/01/15 08:43:28;;;;;;;0.40;0.40;;;6.90;99.90;;;;;;4997214;28;20171;-69
2023/01/15 08:45:59;;;;;;;0.40;0.40;;;6.90;99.90;;;;;;4976978;28;20616;-70
2023/01/15 08:48:25;;;;;;;0.30;0.30;;;6.90;99.90;;;;;;5013468;28;20179;-69
2023/01/15 08:50:51;;;;;;;0.40;0.30;;;6.90;99.90;;;;;;5014075;28;20225;-67
2023/01/15 08:53:18;;;;;;;0.30;0.30;;;7.00;99.90;;;;;;5013899;28;20175;-67
2023/01/15 08:55:47;;;;;;;0.30;0.30;;;7.00;99.90;;;;;;5013777;28;20193;-69
2023/01/15 08:58:13;;;;;;;0.35;0.35;;;7.00;99.90;;;;;;5014047;28;20169;-69
2023/01/15 09:00:39;;;;;;;0.30;0.30;;;7.00;99.90;;;;;;5014028;28;20232;-68
2023/01/15 09:03:04;;;;;;;0.43;0.43;;;7.10;99.90;;;;;;5013503;28;20183;-68
2023/01/15 09:05:30;;;;;;;0.30;0.30;;;7.10;99.90;;;;;;5013609;28;20226;-68
2023/01/15 09:07:56;;;;;;;1.37;0.40;;;7.10;99.90;;;;;;5013611;28;20248;-68
2023/01/15 09:10:22;;;;;;;0.30;0.30;;;7.00;99.90;;;;;;5000917;28;20183;-69
2023/01/15 09:12:48;;;;;;;1.10;0.45;;;7.00;99.90;;;;;;4976297;28;20189;-71
2023/01/15 09:15:14;;;;;;;0.30;0.30;;;7.00;99.90;;;;;;4993976;28;20281;-70
2023/01/15 09:17:40;;;;;;;0.40;0.40;;;7.00;99.90;;;;;;4994320;28;20282;-68
2023/01/15 09:20:09;;;;;;;0.40;0.30;;;7.10;99.90;;;;;;4994045;28;20178;-70
2023/01/15 09:22:35;;;;;;;0.35;0.35;;;7.00;99.90;;;;;;4998683;28;20186;-67
2023/01/15 09:25:00;;;;;;;0.40;0.40;;;7.00;99.90;;;;;;5001553;28;20521;-67
2023/01/15 09:27:29;;;;;;;0.60;0.50;;;7.00;99.90;;;;;;5003585;28;20448;-66
2023/01/15 09:29:55;;;;;;;0.38;0.38;;;7.00;99.90;;;;;;4986386;28;20264;-66
2023/01/15 09:32:21;;;;;;;0.30;0.30;;;7.00;99.90;;;;;;5002103;28;20205;-67
2023/01/15 09:34:47;;;;;;;0.70;0.47;;;7.00;99.90;;;;;;4985587;28;20691;-67
2023/01/15 09:37:12;;;;;;;1.10;1.10;;;7.00;99.90;;;;;;5003652;28;20410;-68
2023/01/15 09:39:38;;;;;;;1.07;0.70;;;7.00;99.90;;;;;;4999369;28;20183;-67
2023/01/15 09:42:14;;;;;;;2.00;0.60;;;7.00;99.90;;;;;;5010498;28;20188;-66
2023/01/15 09:44:58;;;;;;;0.40;0.40;;;7.00;99.90;;;;;;5009494;28;20209;-64
2023/01/15 09:47:53;;;;;;;0.55;0.50;;;7.00;99.90;;;;;;4995460;28;20209;-65
2023/01/15 09:51:02;;;;;;;0.30;0.30;;;7.00;99.90;;;;;;4995966;28;20201;-67
2023/01/15 09:53:28;;;;;;;0.40;0.40;;;7.10;99.90;;;;;;4980696;28;20351;-67
2023/01/15 09:55:54;;;;;;;0.83;0.40;;;7.10;99.90;;;;;;4976231;28;20266;-69
2023/01/15 09:58:31;;;;;;;0.40;0.40;;;7.20;99.90;;;;;;4993892;28;20238;-67
2023/01/15 10:00:57;;;;;;;0.38;0.38;;;7.20;99.90;;;;;;4993717;28;20167;-71
2023/01/15 10:03:31;;;;;;;0.30;0.30;;;7.20;99.90;;;;;;5006227;28;20663;-69
2023/01/15 10:06:19;;;;;;;0.55;0.30;;;7.30;99.90;;;;;;5012082;28;20688;-71
2023/01/15 10:08:47;;;;;;;0.50;0.38;;;7.30;99.90;;;;;;4989406;28;20183;-71
2023/01/15 10:11:19;;;;;;;0.40;0.32;;;7.30;99.90;;;;;;5011748;28;20250;-72
2023/01/15 10:13:53;;;;;;;0.30;0.30;;;7.30;99.90;;;;;;4994260;28;20529;-71
2023/01/15 10:16:25;;;;;;;0.40;0.40;;;7.30;99.90;;;;;;5012858;28;20174;-71
2023/01/15 10:18:52;;;;;;;2.15;0.80;;;7.30;99.90;;;;;;5006330;28;20214;-71
2023/01/15 10:21:32;;;;;;;0.60;0.60;;;7.30;99.90;;;;;;4992789;28;20182;-70
2023/01/15 10:24:09;;;;;;;1.65;1.13;;;7.30;99.90;;;;;;4992043;28;20191;-70
2023/01/15 10:26:39;;;;;;;1.13;0.80;;;7.20;99.90;;;;;;4992653;28;20251;-72
2023/01/15 10:29:16;;;;;;;5.10;2.00;;;7.20;99.90;;;;;;4992541;28;20163;-71
2023/01/15 10:31:53;;;;;;;11.07;5.60;;;7.10;99.90;;;;;;4975660;28;20705;-71
2023/01/15 10:34:19;;;;;;;0.52;0.40;;;7.10;99.90;;;;;;4994539;28;20195;-72
2023/01/15 10:36:55;;;;;;;0.40;0.40;;;7.10;99.90;;;;;;4997376;28;20176;-71
2023/01/15 10:39:35;;;;;;;0.40;0.30;;;7.00;99.90;;;;;;4997527;28;20202;-72
2023/01/15 10:42:01;;;;;;;0.40;0.40;;;7.00;99.90;;;;;;4997203;28;20697;-72
2023/01/15 10:44:50;;;;;;;0.80;0.50;;;6.90;99.90;;;;;;4996401;28;20195;-69
2023/01/15 10:47:21;;;;;;;0.30;0.30;;;6.80;99.90;;;;;;4996630;28;20714;-71
2023/01/15 10:49:49;;;;;;;0.30;0.30;;;6.80;99.90;;;;;;4996860;28;20178;-72
2023/01/15 10:52:34;;;;;;;0.40;0.40;;;6.80;99.90;;;;;;4997028;28;20197;-71
2023/01/15 10:55:22;;;;;;;0.60;0.40;;;6.80;99.90;;;;;;4997211;28;20198;-72
2023/01/15 10:58:13;;;;;;;0.63;0.50;;;6.70;99.90;;;;;;4980412;28;20656;-72
2023/01/15 11:00:39;;;;;;;0.43;0.28;;;6.50;99.90;;;;;;5006521;28;20181;-73
2023/01/15 11:03:16;;;;;;;0.43;0.32;;;6.40;99.90;;;;;;5016264;28;20174;-72
2023/01/15 11:05:45;;;;;;;1.48;0.80;;;6.30;99.90;;;;;;5016376;28;20201;-71
2023/01/15 11:08:25;;;;;;;0.65;0.65;;;6.20;99.90;;;;;;5016739;28;20619;-71
2023/01/15 11:10:51;;;;;;;0.30;0.30;;;6.00;99.90;;;;;;5016064;28;20250;-72
2023/01/15 11:21:40;;;;;;;0.50;0.50;;;5.90;99.90;;;;;;5015792;28;20184;-71
2023/01/15 11:24:14;;;;;;;0.30;0.30;;;6.00;99.90;;;;;;5015464;28;20186;-72
2023/01/15 11:26:40;;;;;;;0.38;0.38;;;6.00;99.90;;;;;;5015646;28;20553;-71
2023/01/15 11:29:36;;;;;;;0.30;0.30;;;6.00;99.90;;;;;;5015754;28;20167;-72
2023/01/15 11:32:02;;;;;;;0.30;0.30;;;6.00;99.90;;;;;;4997821;28;20174;-72
2023/01/15 11:34:28;;;;;;;0.38;0.38;;;5.90;99.90;;;;;;5015142;28;20273;-71
2023/01/15 11:37:02;;;;;;;1.10;0.40;;;5.90;99.90;;;;;;5015665;28;20204;-71
2023/01/15 11:39:30;;;;;;;0.30;0.30;;;5.80;99.90;;;;;;4997859;28;20660;-70
2023/01/15 11:50:58;;;;;;;0.40;0.40;;;5.60;99.90;;;;;;5015549;28;20190;-71
2023/01/15 11:53:31;;;;;;;0.50;0.50;;;5.60;99.90;;;;;;4997128;28;20181;-72
2023/01/15 11:56:05;;;;;;;0.47;0.47;;;5.60;99.90;;;;;;5014940;28;20184;-72
2023/01/15 11:58:41;;;;;;;0.40;0.40;;;5.50;99.90;;;;;;5015345;28;20249;-73
2023/01/15 12:01:08;;;;;;;0.93;0.50;;;5.60;99.90;;;;;;5015178;28;20172;-72
2023/01/15 12:03:35;;;;;;;0.68;0.68;;;5.50;99.90;;;;;;5014433;28;20167;-72
2023/01/15 12:06:11;;;;;;;0.60;0.60;;;5.50;99.90;;;;;;4997186;28;20234;-72
2023/01/15 12:09:03;;;;;;;0.50;0.50;;;5.60;99.90;;;;;;5014907;28;20174;-73
2023/01/15 12:12:00;;;;;;;0.40;0.40;;;5.60;99.90;;;;;;5014894;28;20524;-73
2023/01/15 12:14:38;;;;;;;0.45;0.35;;;5.60;99.90;;;;;;5014491;28;20205;-72
2023/01/15 12:17:31;;;;;;;0.40;0.40;;;5.60;99.90;;;;;;5014464;28;20223;-71
2023/01/15 12:20:20;;;;;;;0.43;0.43;;;5.60;99.90;;;;;;4996900;28;20206;-71
2023/01/15 12:22:52;;;;;;;0.50;0.50;;;5.60;99.90;;;;;;5014332;28;20174;-71
2023/01/15 12:25:33;;;;;;;0.40;0.40;;;5.70;99.90;;;;;;4996803;28;20205;-72
2023/01/15 12:28:09;;;;;;;0.47;0.47;;;5.70;99.90;;;;;;4996772;28;20665;-72
2023/01/15 12:30:53;;;;;;;1.58;0.63;;;5.70;99.90;;;;;;5014548;28;20166;-71
2023/01/15 12:33:28;;;;;;;0.35;0.35;;;5.70;99.90;;;;;;5014120;28;20165;-72
2023/01/15 12:36:06;;;;;;;0.70;0.60;;;5.70;99.90;;;;;;5014470;28;20208;-71
2023/01/15 12:38:46;;;;;;;0.50;0.40;;;5.70;99.90;;;;;;5014350;28;20253;-71
2023/01/15 12:41:16;;;;;;;0.40;0.30;;;5.70;99.90;;;;;;4996726;28;20267;-71
2023/01/15 12:46:38;;;;;;;0.57;0.57;;;5.80;99.90;;;;;;5013942;28;20205;-72
2023/01/15 12:49:13;;;;;;;0.52;0.47;;;5.90;99.90;;;;;;5014495;28;20168;-72
2023/01/15 12:52:10;;;;;;;0.50;0.40;;;5.90;99.90;;;;;;5014143;28;20166;-68
2023/01/15 12:54:46;;;;;;;0.40;0.40;;;5.90;99.90;;;;;;5013512;28;20279;-71
2023/01/15 12:57:23;;;;;;;0.40;0.40;;;5.90;99.90;;;;;;5013604;28;20177;-71
2023/01/15 13:00:01;;;;;;;1.75;0.43;;;5.90;99.90;;;;;;5011994;28;20180;-69
2023/01/15 13:02:51;;;;;;;0.40;0.40;;;5.90;99.90;;;;;;4994171;28;20319;-69
2023/01/15 13:05:21;;;;;;;0.45;0.40;;;5.90;99.90;;;;;;4994174;28;20227;-69
2023/01/15 13:08:03;;;;;;;0.70;0.70;;;5.90;99.90;;;;;;4994015;28;20208;-69
2023/01/15 13:10:34;;;;;;;0.98;0.80;;;6.00;99.90;;;;;;4994259;28;20526;-69
2023/01/15 13:13:16;;;;;;;0.60;0.50;;;6.00;99.90;;;;;;4994013;28;20199;-69
2023/01/15 13:16:06;;;;;;;0.43;0.43;;;5.90;99.90;;;;;;4993932;28;20670;-69
2023/01/15 13:18:41;;;;;;;0.52;0.52;;;6.00;99.90;;;;;;4994423;28;20288;-70
2023/01/15 13:21:13;;;;;;;0.60;0.60;;;6.10;99.90;;;;;;4994301;28;20172;-70
2023/01/15 13:23:51;;;;;;;0.40;0.40;;;6.10;99.90;;;;;;4976261;28;20172;-71
2023/01/15 13:26:44;;;;;;;0.90;0.90;;;6.20;99.90;;;;;;4994174;28;20168;-70
2023/01/15 13:29:46;;;;;;;2.15;0.63;;;6.30;99.90;;;;;;4994046;28;20166;-70
2023/01/15 13:32:16;;;;;;;3.08;0.50;;;6.40;99.90;;;;;;4994029;28;20259;-70
2023/01/15 13:34:56;;;;;;;0.73;0.73;;;6.40;99.90;;;;;;4993328;28;20321;-70
2023/01/15 13:37:25;;;;;;;0.40;0.40;;;6.50;99.90;;;;;;4976466;28;20646;-70
2023/01/15 13:39:57;;;;;;;4.35;0.70;;;6.60;99.90;;;;;;4993980;28;20254;-70
2023/01/15 13:42:31;;;;;;;1.02;1.02;;;6.60;99.90;;;;;;4994035;28;20597;-69
2023/01/15 13:45:25;;;;;;;1.05;0.40;;;6.60;99.90;;;;;;4993462;28;20198;-69
2023/01/15 13:47:51;;;;;;;0.50;0.50;;;6.60;99.90;;;;;;4994018;28;20201;-70
2023/01/15 13:50:27;;;;;;;0.98;0.98;;;6.60;99.90;;;;;;4993784;28;20174;-70
2023/01/15 13:53:05;;;;;;;0.50;0.40;;;6.60;99.90;;;;;;4993398;28;20635;-71
2023/01/15 13:55:37;;;;;;;0.40;0.40;;;6.60;99.90;;;;;;4993671;28;20186;-71
2023/01/15 13:58:18;;;;;;;0.40;0.40;;;6.60;99.90;;;;;;4993716;28;20196;-70
2023/01/15 14:00:45;;;;;;;0.30;0.30;;;6.60;99.90;;;;;;5003168;28;20178;-70
2023/01/15 14:03:28;;;;;;;0.90;0.90;;;6.50;99.90;;;;;;5012937;28;20178;-71
2023/01/15 14:06:00;;;;;;;1.58;0.55;;;6.60;99.90;;;;;;4995614;28;20182;-70
2023/01/15 14:08:38;;;;;;;0.40;0.40;;;6.60;99.90;;;;;;4995760;28;20718;-71
2023/01/15 14:11:04;;;;;;;0.40;0.40;;;6.70;99.90;;;;;;5017183;28;20205;-70
2023/01/15 14:13:36;;;;;;;0.90;0.43;;;6.70;99.90;;;;;;5016636;28;20167;-70
2023/01/15 14:16:05;;;;;;;1.30;1.20;;;6.70;99.90;;;;;;5016994;28;20400;-70
2023/01/15 14:18:49;;;;;;;1.42;0.90;;;6.70;99.90;;;;;;5017532;28;20527;-70
2023/01/15 14:21:40;;;;;;;0.57;0.52;;;6.70;99.90;;;;;;5017081;28;20524;-70
2023/01/15 14:24:43;;;;;;;0.40;0.40;;;6.70;99.90;;;;;;5016278;28;20187;-70
2023/01/15 14:27:30;;;;;;;0.38;0.38;;;6.70;99.90;;;;;;5016552;28;20201;-70
2023/01/15 14:30:21;;;;;;;0.40;0.40;;;6.70;99.90;;;;;;5016658;28;20174;-70
2023/01/15 14:33:24;;;;;;;0.60;0.60;;;6.70;99.90;;;;;;5016307;28;20166;-70
2023/01/15 14:35:50;;;;;;;2.60;0.60;;;6.60;99.90;;;;;;5016350;28;20189;-70
2023/01/15 14:38:23;;;;;;;2.75;0.70;;;6.70;99.90;;;;;;5016545;28;20178;-70
2023/01/15 14:40:52;;;;;;;0.80;0.75;;;6.70;99.90;;;;;;4998611;28;20640;-70
2023/01/15 14:43:20;;;;;;;0.50;0.40;;;6.60;99.90;;;;;;5015894;28;20235;-70
2023/01/15 14:45:48;;;;;;;0.43;0.40;;;6.60;99.90;;;;;;4998557;28;20209;-70
2023/01/15 14:48:26;;;;;;;1.67;0.70;;;6.60;99.90;;;;;;5016492;28;20208;-69
2023/01/15 14:50:52;;;;;;;0.30;0.30;;;6.60;99.90;;;;;;5016346;28;20256;-71
2023/01/15 14:53:56;;;;;;;0.93;0.85;;;6.60;99.90;;;;;;5015872;28;20167;-69
2023/01/15 14:56:31;;;;;;;1.05;0.50;;;6.60;99.90;;;;;;5003987;28;20247;-71
2023/01/15 14:59:18;;;;;;;0.98;0.85;;;6.50;99.90;;;;;;5016168;28;20246;-70
2023/01/15 15:01:49;;;;;;;1.40;0.60;;;6.50;99.90;;;;;;4998222;28;20656;-69
2023/01/15 15:04:38;;;;;;;0.40;0.40;;;6.40;99.90;;;;;;4995965;28;20206;-69
2023/01/15 15:07:21;;;;;;;0.40;0.40;;;6.40;99.90;;;;;;4997644;28;20221;-69
2023/01/15 15:10:13;;;;;;;0.38;0.38;;;6.40;99.90;;;;;;4998356;28;20298;-70
2023/01/15 15:12:58;;;;;;;0.95;0.95;;;6.40;99.90;;;;;;4978713;28;20185;-70
2023/01/15 15:15:23;;;;;;;1.15;1.05;;;6.40;99.90;;;;;;4996157;28;20241;-70
2023/01/15 15:18:22;;;;;;;0.80;0.40;;;6.30;99.90;;;;;;4996272;28;20636;-69
2023/01/15 15:21:03;;;;;;;0.80;0.50;;;6.30;99.90;;;;;;4995151;28;20187;-69
2023/01/15 15:23:41;;;;;;;1.35;0.60;;;6.30;99.90;;;;;;4995533;28;20170;-70
2023/01/15 15:26:28;;;;;;;0.52;0.50;;;6.30;99.90;;;;;;4995641;28;20169;-71
2023/01/15 15:28:59;;;;;;;0.77;0.50;;;6.20;99.90;;;;;;4996034;28;20254;-70
2023/01/15 15:31:26;;;;;;;0.40;0.30;;;6.20;99.90;;;;;;4995907;28;20214;-69
2023/01/15 15:33:54;;;;;;;0.80;0.68;;;6.20;99.90;;;;;;4995630;28;20209;-69
2023/01/15 15:36:22;;;;;;;0.40;0.40;;;6.10;99.90;;;;;;4978346;28;20171;-69
2023/01/15 15:38:52;;;;;;;1.38;0.60;;;6.00;99.90;;;;;;4995956;28;20171;-70
2023/01/15 15:48:40;;;;;;;0.82;0.40;;;6.00;99.90;;;;;;4995857;28;20178;-70
2023/01/15 15:49:41;;;;;;;0.68;0.55;;;5.80;99.90;;;;;;4995379;28;20249;-69
2023/01/15 15:52:22;;;;;;;0.90;0.90;;;5.80;99.90;;;;;;4995309;28;20195;-69
2023/01/15 15:55:05;;;;;;;0.63;0.63;;;5.70;99.90;;;;;;4995093;28;20595;-69
2023/01/15 15:57:33;;;;;;;0.55;0.55;;;5.70;99.90;;;;;;4995606;28;20178;-69
2023/01/15 16:00:00;;;;;;;2.75;1.10;;;5.70;99.90;;;;;;4998785;28;20168;-69
2023/01/15 16:02:52;;;;;;;0.60;0.60;;;5.60;99.90;;;;;;4996677;28;20227;-71
2023/01/15 16:05:17;;;;;;;0.82;0.63;;;5.60;99.90;;;;;;5010380;28;20203;-70
2023/01/15 16:07:44;;;;;;;0.83;0.83;;;5.60;99.90;;;;;;5014529;28;20692;-69
2023/01/15 16:10:20;;;;;;;0.60;0.60;;;5.60;99.90;;;;;;5013311;28;20652;-71
2023/01/15 16:12:52;;;;;;;0.55;0.55;;;5.50;99.90;;;;;;5013463;28;20183;-66
2023/01/15 16:15:28;;;;;;;0.60;0.60;;;5.50;99.90;;;;;;5013958;28;20191;-64
2023/01/15 16:17:57;;;;;;;0.68;0.68;;;5.60;99.90;;;;;;4995986;28;20548;-63
2023/01/15 16:20:23;;;;;;;0.77;0.77;;;5.60;99.90;;;;;;5004550;28;20202;-63
2023/01/15 16:22:59;;;;;;;0.40;0.40;;;5.60;99.90;;;;;;5013541;28;20181;-63
2023/01/15 16:25:50;;;;;;;0.40;0.40;;;5.60;99.90;;;;;;5013767;28;20191;-63
2023/01/15 16:28:27;;;;;;;0.55;0.55;;;5.50;99.90;;;;;;5003182;28;20203;-61
2023/01/15 16:31:03;;;;;;;0.50;0.50;;;5.50;99.90;;;;;;5001765;28;20185;-60
2023/01/15 16:33:29;;;;;;;0.70;0.70;;;5.50;99.90;;;;;;5012711;28;20180;-69
2023/01/15 16:35:57;;;;;;;1.37;0.90;;;5.40;99.90;;;;;;5006781;28;20263;-69
2023/01/15 16:38:23;;;;;;;0.60;0.60;;;5.40;99.90;;;;;;5014636;28;20757;-68
2023/01/15 16:40:49;;;;;;;0.70;0.70;;;5.40;99.90;;;;;;4995741;28;20180;-68
2023/01/15 16:43:14;;;;;;;0.50;0.50;;;5.40;99.90;;;;;;5013493;28;20689;-67
2023/01/15 16:45:55;;;;;;;1.43;0.60;;;5.50;99.90;;;;;;5008620;28;20470;-66
2023/01/15 16:48:28;;;;;;;1.15;0.60;;;5.50;99.90;;;;;;5003457;28;20261;-66
2023/01/15 16:50:54;;;;;;;0.60;0.60;;;5.40;99.90;;;;;;5001572;28;20264;-69
2023/01/15 16:53:34;;;;;;;0.73;0.73;;;5.40;99.90;;;;;;5002906;28;20175;-70
2023/01/15 16:56:00;;;;;;;4.55;0.60;;;5.40;99.90;;;;;;5005074;28;20537;-69
2023/01/15 16:58:40;;;;;;;0.50;0.50;;;5.40;99.90;;;;;;5002541;28;20168;-69
2023/01/15 17:01:40;;;;;;;0.43;0.43;;;5.30;99.90;;;;;;5006393;28;20422;-71
2023/01/15 17:04:36;;;;;;;0.50;0.50;;;5.40;99.90;;;;;;4979180;28;20700;-71
2023/01/15 17:07:12;;;;;;;0.75;0.75;;;5.40;99.90;;;;;;4987966;28;20233;-69
2023/01/15 17:09:53;;;;;;;2.53;0.80;;;5.40;99.90;;;;;;5013153;28;20641;-69
2023/01/15 17:12:35;;;;;;;0.50;0.43;;;5.30;99.90;;;;;;5013855;28;20202;-72
2023/01/15 17:15:13;;;;;;;0.60;0.60;;;5.30;99.90;;;;;;4997001;28;20199;-70
2023/01/15 17:17:39;;;;;;;1.45;1.35;;;5.40;99.90;;;;;;5012521;28;20176;-73
2023/01/15 17:20:07;;;;;;;1.58;1.48;;;5.30;99.90;;;;;;5013258;28;20178;-72
2023/01/15 17:22:33;;;;;;;0.73;0.73;;;5.30;99.90;;;;;;5009971;28;20190;-71
2023/01/15 17:25:00;;;;;;;0.80;0.80;;;5.30;99.90;;;;;;5011933;28;20198;-69
2023/01/15 17:27:27;;;;;;;0.70;0.70;;;5.30;99.90;;;;;;5013501;28;20449;-69
2023/01/15 17:29:53;;;;;;;0.55;0.55;;;5.20;99.90;;;;;;5013286;28;20190;-69
2023/01/15 17:32:30;;;;;;;5.70;0.90;;;5.20;99.90;;;;;;5013588;28;20521;-64
2023/01/15 17:34:56;;;;;;;1.67;0.50;;;5.30;99.90;;;;;;4994462;28;20196;-70
2023/01/15 17:37:21;;;;;;;1.33;1.20;;;5.30;99.90;;;;;;5012798;28;20179;-70
2023/01/15 17:39:47;;;;;;;1.10;1.00;;;5.30;99.90;;;;;;5012723;28;20430;-66
2023/01/15 17:42:18;;;;;;;0.50;0.50;;;5.30;99.90;;;;;;5003868;28;20183;-69
2023/01/15 17:44:44;;;;;;;0.60;0.60;;;5.20;99.90;;;;;;5007857;28;20505;-68
2023/01/15 17:47:09;;;;;;;0.60;0.60;;;5.30;99.90;;;;;;5016944;28;20204;-69
2023/01/15 17:49:35;;;;;;;0.87;0.87;;;5.30;99.90;;;;;;5017204;28;20938;-70
2023/01/15 17:52:04;;;;;;;1.73;0.70;;;5.30;99.90;;;;;;5017327;28;20175;-70
2023/01/15 18:05:31;;;;;;;2.10;0.70;;;5.20;99.90;;;;;;4997396;28;20202;-67
2023/01/15 18:07:59;;;;;;;1.02;0.68;;;5.30;99.90;;;;;;5001529;28;20202;-65
2023/01/15 18:10:25;;;;;;;1.70;1.42;;;5.20;99.90;;;;;;5016854;28;20643;-66
2023/01/15 18:12:50;;;;;;;0.70;0.70;;;5.30;99.90;;;;;;4998749;28;20179;-71
2023/01/15 18:15:16;;;;;;;0.50;0.50;;;5.30;99.90;;;;;;5008122;28;20528;-68
2023/01/15 18:17:42;;;;;;;2.40;1.07;;;5.30;99.90;;;;;;5013580;28;20342;-69
2023/01/15 18:20:09;;;;;;;0.80;0.80;;;5.20;99.90;;;;;;5016824;28;20406;-70
2023/01/15 18:22:34;;;;;;;0.68;0.52;;;5.20;99.90;;;;;;5013727;28;20569;-67
2023/01/15 18:25:00;;;;;;;0.53;0.53;;;5.20;99.90;;;;;;5002927;28;20194;-67
2023/01/15 18:27:28;;;;;;;0.90;0.80;;;5.20;99.90;;;;;;5013196;28;20254;-66
2023/01/15 18:29:55;;;;;;;1.50;1.40;;;5.10;99.90;;;;;;5005707;28;20638;-68
2023/01/15 18:32:21;;;;;;;1.27;1.17;;;5.10;99.90;;;;;;4984782;28;20178;-72
2023/01/15 18:34:47;;;;;;;1.23;1.15;;;5.10;99.90;;;;;;5010408;28;20196;-72
2023/01/15 18:37:12;;;;;;;1.40;0.57;;;5.10;99.90;;;;;;4998817;28;20179;-70
2023/01/15 18:39:38;;;;;;;0.90;0.90;;;5.10;99.90;;;;;;5002999;28;20171;-71
2023/01/15 18:47:16;;;;;;;0.80;0.80;;;5.10;99.90;;;;;;5011976;28;20272;-67
2023/01/15 18:49:43;;;;;;;0.95;0.70;;;5.00;99.90;;;;;;4995213;28;20185;-69
2023/01/15 18:54:55;;;;;;;1.13;1.13;;;5.00;99.90;;;;;;5001308;28;20236;-69
2023/01/15 18:57:22;;;;;;;1.50;1.40;;;5.00;99.90;;;;;;4993807;28;20183;-68
2023/01/15 18:59:47;;;;;;;1.10;1.00;;;5.00;99.90;;;;;;5015876;28;20407;-67
2023/01/15 19:02:17;;;;;;;0.60;0.60;;;5.00;99.90;;;;;;4998442;28;20250;-69
2023/01/15 19:04:43;;;;;;;1.00;0.90;;;4.90;99.90;;;;;;5003029;28;20450;-69
2023/01/15 19:07:10;;;;;;;0.73;0.73;;;4.90;99.90;;;;;;5015271;28;20199;-69
2023/01/15 19:09:36;;;;;;;0.63;0.50;;;4.90;99.90;;;;;;5004032;28;20410;-69
2023/01/15 19:12:03;;;;;;;1.75;0.77;;;4.90;99.90;;;;;;5005077;28;20172;-67
2023/01/15 19:20:10;;;;;;;1.05;0.82;;;4.90;99.90;;;;;;5007781;28;20232;-68
2023/01/15 19:25:22;;;;;;;0.50;0.50;;;4.90;99.90;;;;;;5013569;28;20734;-68
2023/01/15 19:27:48;;;;;;;2.30;1.40;;;4.90;99.90;;;;;;5015108;28;20198;-67
2023/01/15 19:30:14;;;;;;;1.48;0.75;;;4.80;99.90;;;;;;5012327;28;20534;-67
2023/01/15 19:32:40;;;;;;;0.70;0.70;;;4.80;99.90;;;;;;5004865;28;20186;-79
2023/01/15 19:35:06;;;;;;;1.17;1.07;;;4.80;99.90;;;;;;5004340;28;20579;-68
2023/01/15 19:37:35;;;;;;;0.70;0.70;;;4.80;99.90;;;;;;5006044;28;20427;-68
2023/01/15 19:40:02;;;;;;;0.70;0.70;;;4.80;99.90;;;;;;5004489;28;20425;-67
2023/01/15 19:50:43;;;;;;;0.70;0.70;;;4.70;99.90;;;;;;5008820;28;20509;-72